createdAt,value
2019-03-25T00:01:36.461Z,17.20
2019-03-25T00:04:04.317Z,17.20
2019-03-25T00:06:32.190Z,17.20
2019-03-25T00:09:05.407Z,17.20
2019-03-25T00:11:30.323Z,17.20
2019-03-25T00:13:58.266Z,17.20
2019-03-25T00:16:26.300Z,17.20
2019-03-25T00:18:54.252Z,17.20
2019-03-25T00:21:22.251Z,17.20
2019-03-25T00:23:50.143Z,17.90
2019-03-25T00:26:18.008Z,19.50
2019-03-25T00:28:45.889Z,17.30
2019-03-25T00:31:13.867Z,17.10
2019-03-25T00:33:41.806Z,17.10
2019-03-25T00:36:09.710Z,17.10
2019-03-25T00:38:37.555Z,17.10
2019-03-25T00:41:05.343Z,17.10
2019-03-25T00:43:33.339Z,17.10
2019-03-25T00:46:01.325Z,17.20
2019-03-25T00:48:29.247Z,17.20
2019-03-25T00:50:57.342Z,17.20
2019-03-25T00:53:25.233Z,17.20
2019-03-25T00:55:53.080Z,17.20
2019-03-25T00:58:20.959Z,17.20
2019-03-25T01:00:48.905Z,17.20
2019-03-25T01:03:17.108Z,17.20
2019-03-25T01:05:45.217Z,17.20
2019-03-25T01:08:13.617Z,17.20
2019-03-25T01:10:41.558Z,15.50
2019-03-25T01:13:10.408Z,17.20
2019-03-25T01:15:38.493Z,17.20
2019-03-25T01:18:16.326Z,17.20
2019-03-25T01:20:36.236Z,17.20
2019-03-25T01:23:04.391Z,17.20
2019-03-25T01:25:32.532Z,17.20
2019-03-25T01:28:00.587Z,17.20
2019-03-25T01:30:28.638Z,17.10
2019-03-25T01:32:56.651Z,17.20
2019-03-25T01:35:24.642Z,17.20
2019-03-25T01:37:52.599Z,17.10
2019-03-25T01:40:20.549Z,17.20
2019-03-25T01:42:48.496Z,17.20
2019-03-25T01:45:16.350Z,17.10
2019-03-25T01:47:44.235Z,13.90
2019-03-25T01:50:12.301Z,17.20
2019-03-25T01:52:40.201Z,17.20
2019-03-25T01:55:13.378Z,17.10
2019-03-25T01:57:38.014Z,17.10
2019-03-25T02:00:06.617Z,17.10
2019-03-25T02:02:34.598Z,17.10
2019-03-25T02:05:02.800Z,17.20
2019-03-25T02:07:30.823Z,17.10
2019-03-25T02:09:58.671Z,17.10
2019-03-25T02:12:26.677Z,17.10
2019-03-25T02:14:54.635Z,17.10
2019-03-25T02:17:22.427Z,17.10
2019-03-25T02:19:50.310Z,17.00
2019-03-25T02:22:19.100Z,17.00
2019-03-25T02:24:47.031Z,18.00
2019-03-25T02:27:15.001Z,17.00
2019-03-25T02:29:42.853Z,17.00
2019-03-25T02:32:10.742Z,17.00
2019-03-25T02:34:38.703Z,17.00
2019-03-25T02:37:06.648Z,17.00
2019-03-25T02:39:34.911Z,17.00
2019-03-25T02:42:02.779Z,17.00
2019-03-25T02:44:30.673Z,17.00
2019-03-25T02:46:58.650Z,17.00
2019-03-25T02:49:26.518Z,17.00
2019-03-25T02:51:54.485Z,16.90
2019-03-25T02:54:22.350Z,17.20
2019-03-25T02:56:50.373Z,16.90
2019-03-25T02:59:18.306Z,18.70
2019-03-25T03:01:46.174Z,16.90
2019-03-25T03:04:14.173Z,16.90
2019-03-25T03:06:42.516Z,16.90
2019-03-25T03:09:10.401Z,17.00
2019-03-25T03:11:38.450Z,16.90
2019-03-25T03:14:06.399Z,16.80
2019-03-25T03:16:34.388Z,16.80
2019-03-25T03:19:02.323Z,16.80
2019-03-25T03:21:30.055Z,16.80
2019-03-25T03:23:57.916Z,20.40
2019-03-25T03:26:25.788Z,16.70
2019-03-25T03:28:53.792Z,16.70
2019-03-25T03:31:21.739Z,16.60
2019-03-25T03:33:49.682Z,16.70
2019-03-25T03:36:17.652Z,16.60
2019-03-25T03:38:45.589Z,16.60
2019-03-25T03:41:13.466Z,16.60
2019-03-25T03:43:41.402Z,16.50
2019-03-25T03:46:09.380Z,16.50
2019-03-25T03:48:37.330Z,16.50
2019-03-25T03:51:05.248Z,16.50
2019-03-25T03:53:33.356Z,16.40
2019-03-25T03:56:12.663Z,16.50
2019-03-25T04:01:00.970Z,16.40
2019-03-25T04:03:28.947Z,16.30
2019-03-25T04:05:56.922Z,16.70
2019-03-25T04:08:24.748Z,16.30
2019-03-25T04:10:52.815Z,16.30
2019-03-25T04:13:20.762Z,16.30
2019-03-25T04:15:48.699Z,16.40
2019-03-25T04:18:16.627Z,16.40
2019-03-25T04:20:44.609Z,16.20
2019-03-25T04:23:12.500Z,16.20
2019-03-25T04:25:40.484Z,16.20
2019-03-25T04:28:08.488Z,17.50
2019-03-25T04:30:36.481Z,16.10
2019-03-25T04:33:04.318Z,16.10
2019-03-25T04:35:32.172Z,16.20
2019-03-25T04:38:00.195Z,16.30
2019-03-25T04:40:28.148Z,16.10
2019-03-25T04:42:55.962Z,16.10
2019-03-25T04:45:23.817Z,16.00
2019-03-25T04:47:51.706Z,16.00
2019-03-25T04:50:19.586Z,16.00
2019-03-25T04:52:47.616Z,16.00
2019-03-25T04:55:15.451Z,16.00
2019-03-25T04:57:43.481Z,16.00
2019-03-25T05:00:12.074Z,16.00
2019-03-25T05:02:39.926Z,19.60
2019-03-25T05:05:08.104Z,17.50
2019-03-25T05:07:35.965Z,15.90
2019-03-25T05:10:04.295Z,15.90
2019-03-25T05:12:32.177Z,15.80
2019-03-25T05:15:00.040Z,15.80
2019-03-25T05:17:27.948Z,16.10
2019-03-25T05:19:55.905Z,15.80
2019-03-25T05:22:23.785Z,15.80
2019-03-25T05:24:51.807Z,15.70
2019-03-25T05:27:19.710Z,15.70
2019-03-25T05:29:47.674Z,15.70
2019-03-25T05:32:18.045Z,15.70
2019-03-25T05:34:46.395Z,15.60
2019-03-25T05:37:14.617Z,15.60
2019-03-25T05:40:01.761Z,15.60
2019-03-25T05:42:29.667Z,15.60
2019-03-25T05:44:57.660Z,15.60
2019-03-25T05:47:28.739Z,15.50
2019-03-25T05:49:56.551Z,15.50
2019-03-25T05:52:24.391Z,15.50
2019-03-25T05:54:52.249Z,15.50
2019-03-25T05:57:20.247Z,15.50
2019-03-25T05:59:48.151Z,15.50
2019-03-25T06:02:16.111Z,15.40
2019-03-25T06:04:44.147Z,15.40
2019-03-25T06:07:12.146Z,15.40
2019-03-25T06:09:40.038Z,15.40
2019-03-25T06:12:08.741Z,15.40
2019-03-25T06:14:36.733Z,15.40
2019-03-25T06:17:04.945Z,15.40
2019-03-25T06:19:33.023Z,15.40
2019-03-25T06:22:00.967Z,15.30
2019-03-25T06:24:28.984Z,15.30
2019-03-25T06:26:56.860Z,15.30
2019-03-25T06:29:24.854Z,15.20
2019-03-25T06:31:52.883Z,17.20
2019-03-25T06:34:20.923Z,15.30
2019-03-25T06:36:48.941Z,18.00
2019-03-25T06:39:16.923Z,15.70
2019-03-25T06:41:44.857Z,15.30
2019-03-25T06:44:13.165Z,15.50
2019-03-25T06:46:41.128Z,15.20
2019-03-25T06:49:09.048Z,15.20
2019-03-25T06:51:37.103Z,15.20
2019-03-25T06:54:05.184Z,15.20
2019-03-25T06:56:34.179Z,15.10
2019-03-25T06:59:02.194Z,15.10
2019-03-25T07:01:32.844Z,15.10
2019-03-25T07:04:00.939Z,15.10
2019-03-25T07:06:29.098Z,14.80
2019-03-25T07:08:57.749Z,11.50
2019-03-25T07:11:25.977Z,15.10
2019-03-25T07:13:54.300Z,15.00
2019-03-25T07:16:26.308Z,15.00
2019-03-25T07:18:55.359Z,15.00
2019-03-25T07:21:23.403Z,15.00
2019-03-25T07:23:53.110Z,16.20
2019-03-25T07:26:21.092Z,15.00
2019-03-25T07:28:49.319Z,15.00
2019-03-25T07:31:19.194Z,15.00
2019-03-25T07:33:47.218Z,15.00
2019-03-25T07:36:15.940Z,15.10
2019-03-25T07:38:43.924Z,15.90
2019-03-25T07:41:11.947Z,15.20
2019-03-25T07:43:39.990Z,15.20
2019-03-25T07:46:07.963Z,15.20
2019-03-25T07:48:36.417Z,15.30
2019-03-25T07:51:04.606Z,15.30
2019-03-25T07:53:32.710Z,15.30
2019-03-25T07:56:01.032Z,15.30
2019-03-25T07:58:29.256Z,15.30
2019-03-25T08:00:59.360Z,15.30
2019-03-25T08:03:27.709Z,15.40
2019-03-25T08:05:56.764Z,15.40
2019-03-25T08:08:36.888Z,15.40
2019-03-25T08:11:23.131Z,12.00
2019-03-25T08:14:00.894Z,15.40
2019-03-25T08:16:33.692Z,15.40
2019-03-25T08:19:04.432Z,15.40
2019-03-25T08:24:22.643Z,15.40
2019-03-25T08:26:50.768Z,15.50
2019-03-25T08:29:18.854Z,12.30
2019-03-25T08:31:46.866Z,15.50
2019-03-25T08:34:15.003Z,15.50
2019-03-25T08:36:42.907Z,15.60
2019-03-25T08:39:10.946Z,15.50
2019-03-25T08:41:38.993Z,16.80
2019-03-25T08:44:08.047Z,16.10
2019-03-25T08:46:36.121Z,15.80
2019-03-25T08:49:04.233Z,19.10
2019-03-25T08:51:32.286Z,16.50
2019-03-25T08:54:01.987Z,15.90
2019-03-25T08:56:30.861Z,16.00
2019-03-25T08:58:59.143Z,16.10
2019-03-25T09:01:31.156Z,16.10
2019-03-25T09:04:00.018Z,16.20
2019-03-25T09:06:27.996Z,16.10
2019-03-25T09:08:56.744Z,16.20
2019-03-25T09:11:24.729Z,16.30
2019-03-25T09:13:52.664Z,16.30
2019-03-25T09:16:20.963Z,16.80
2019-03-25T09:18:48.987Z,16.30
2019-03-25T09:21:17.147Z,16.10
2019-03-25T09:23:44.925Z,16.30
2019-03-25T09:26:14.162Z,16.40
2019-03-25T09:28:42.329Z,16.20
2019-03-25T09:31:15.636Z,16.10
2019-03-25T09:33:43.768Z,16.20
2019-03-25T09:36:11.935Z,16.20
2019-03-25T09:38:39.866Z,16.50
2019-03-25T09:41:07.871Z,18.40
2019-03-25T09:43:36.605Z,17.00
2019-03-25T09:46:04.622Z,16.60
2019-03-25T09:48:32.754Z,16.70
2019-03-25T09:51:01.692Z,17.60
2019-03-25T09:53:29.811Z,17.00
2019-03-25T09:55:57.926Z,17.10
2019-03-25T09:58:35.808Z,17.10
2019-03-25T10:00:56.153Z,17.10
2019-03-25T10:07:12.885Z,17.00
2019-03-25T10:09:44.602Z,13.80
2019-03-25T10:12:12.627Z,16.70
2019-03-25T10:14:40.952Z,16.80
2019-03-25T10:17:08.883Z,17.00
2019-03-25T10:19:36.956Z,18.10
2019-03-25T10:22:05.221Z,17.80
2019-03-25T10:24:33.304Z,18.30
2019-03-25T10:27:01.417Z,19.00
2019-03-25T10:29:29.570Z,19.60
2019-03-25T10:31:57.602Z,20.30
2019-03-25T10:34:25.988Z,21.00
2019-03-25T10:36:54.254Z,21.60
2019-03-25T10:39:22.852Z,22.30
2019-03-25T10:41:53.292Z,19.80
2019-03-25T10:44:21.577Z,23.70
2019-03-25T10:46:50.480Z,24.10
2019-03-25T10:49:19.299Z,24.40
2019-03-25T10:51:49.679Z,24.70
2019-03-25T10:54:19.286Z,24.80
2019-03-25T10:56:49.336Z,24.90
2019-03-25T10:59:18.417Z,24.90
2019-03-25T11:02:31.972Z,24.90
2019-03-25T11:05:03.364Z,24.80
2019-03-25T11:07:34.657Z,25.00
2019-03-25T11:10:03.251Z,25.20
2019-03-25T11:12:31.167Z,22.90
2019-03-25T11:15:00.207Z,25.60
2019-03-25T11:17:28.309Z,25.70
2019-03-25T11:19:56.370Z,25.80
2019-03-25T11:22:24.459Z,27.00
2019-03-25T11:24:52.794Z,26.10
2019-03-25T11:27:21.212Z,26.30
2019-03-25T11:29:49.138Z,26.30
2019-03-25T11:32:17.338Z,26.40
2019-03-25T11:34:45.357Z,26.50
2019-03-25T11:37:13.391Z,26.60
2019-03-25T11:39:42.725Z,26.70
2019-03-25T11:42:10.858Z,26.80
2019-03-25T11:44:38.914Z,26.90
2019-03-25T11:47:06.967Z,26.90
2019-03-25T11:49:34.962Z,26.90
2019-03-25T11:52:03.036Z,26.60
2019-03-25T11:54:31.125Z,26.40
2019-03-25T11:56:59.374Z,26.00
2019-03-25T11:59:27.397Z,25.50
2019-03-25T12:01:55.504Z,25.10
2019-03-25T12:04:23.600Z,24.60
2019-03-25T12:06:51.676Z,24.10
2019-03-25T12:09:19.808Z,23.70
2019-03-25T12:11:47.772Z,23.40
2019-03-25T12:14:16.307Z,23.00
2019-03-25T12:16:44.357Z,20.30
2019-03-25T12:19:12.323Z,22.20
2019-03-25T12:21:40.351Z,21.70
2019-03-25T12:24:08.482Z,17.80
2019-03-25T12:26:36.584Z,20.90
2019-03-25T12:29:04.582Z,20.50
2019-03-25T12:31:32.556Z,20.40
2019-03-25T12:34:00.486Z,20.50
2019-03-25T12:36:28.666Z,20.90
2019-03-25T12:38:56.652Z,21.30
2019-03-25T12:41:24.628Z,21.90
2019-03-25T12:43:52.622Z,22.40
2019-03-25T12:46:20.548Z,22.90
2019-03-25T12:48:49.654Z,23.30
2019-03-25T12:51:17.750Z,23.20
2019-03-25T12:53:45.703Z,23.70
2019-03-25T12:56:13.705Z,23.70
2019-03-25T12:58:41.819Z,23.60
2019-03-25T13:01:09.898Z,23.30
2019-03-25T13:03:40.511Z,23.10
2019-03-25T13:06:07.800Z,22.60
2019-03-25T13:08:35.754Z,22.20
2019-03-25T13:11:03.941Z,21.80
2019-03-25T13:13:31.840Z,21.30
2019-03-25T13:15:59.881Z,20.90
2019-03-25T13:18:27.763Z,20.50
2019-03-25T13:20:55.838Z,20.10
2019-03-25T13:23:23.918Z,18.50
2019-03-25T13:25:51.949Z,19.50
2019-03-25T13:28:19.925Z,19.20
2019-03-25T13:30:47.895Z,21.30
2019-03-25T13:33:18.970Z,18.80
2019-03-25T13:35:47.054Z,18.60
2019-03-25T13:38:15.105Z,18.40
2019-03-25T13:40:43.046Z,18.20
2019-03-25T13:43:11.936Z,18.00
2019-03-25T13:45:40.128Z,17.90
2019-03-25T13:48:08.223Z,17.90
2019-03-25T13:50:36.351Z,21.90
2019-03-25T13:53:04.320Z,18.00
2019-03-25T13:55:32.216Z,17.80
2019-03-25T13:58:02.313Z,17.80
2019-03-25T14:00:37.967Z,17.80
2019-03-25T14:03:06.070Z,17.80
2019-03-25T14:05:34.046Z,17.80
2019-03-25T14:08:02.193Z,17.90
2019-03-25T14:10:30.072Z,17.70
2019-03-25T14:12:58.126Z,19.40
2019-03-25T14:15:26.095Z,17.50
2019-03-25T14:17:54.101Z,17.30
2019-03-25T14:20:22.139Z,17.20
2019-03-25T14:22:50.069Z,17.10
2019-03-25T14:25:18.074Z,17.10
2019-03-25T14:27:46.082Z,17.10
2019-03-25T14:30:15.147Z,17.00
2019-03-25T14:32:43.261Z,17.00
2019-03-25T14:35:11.292Z,17.00
2019-03-25T14:37:39.348Z,17.00
2019-03-25T14:40:07.959Z,17.10
2019-03-25T14:42:35.989Z,17.10
2019-03-25T14:45:04.592Z,17.00
2019-03-25T14:47:34.749Z,17.00
2019-03-25T14:50:04.213Z,16.80
2019-03-25T14:52:35.239Z,16.80
2019-03-25T14:55:03.565Z,16.60
2019-03-25T14:57:34.995Z,16.50
2019-03-25T15:00:03.769Z,16.00
2019-03-25T15:02:32.014Z,16.10
2019-03-25T15:05:00.331Z,15.80
2019-03-25T15:07:28.596Z,15.30
2019-03-25T15:09:56.632Z,15.30
2019-03-25T15:12:24.571Z,14.90
2019-03-25T15:17:22.044Z,14.60
2019-03-25T15:19:50.116Z,14.50
2019-03-25T15:22:18.320Z,14.50
2019-03-25T15:24:52.769Z,16.90
2019-03-25T15:27:21.128Z,14.50
2019-03-25T15:29:50.619Z,14.50
2019-03-25T15:32:20.105Z,14.70
2019-03-25T15:34:48.381Z,14.80
2019-03-25T15:37:21.753Z,15.00
2019-03-25T15:39:49.804Z,15.20
2019-03-25T15:42:17.948Z,15.20
2019-03-25T15:44:45.966Z,14.00
2019-03-25T15:47:14.158Z,15.80
2019-03-25T15:49:42.288Z,17.20
2019-03-25T15:52:10.293Z,16.10
2019-03-25T15:54:38.358Z,16.30
2019-03-25T15:57:06.404Z,16.30
2019-03-25T15:59:34.444Z,16.40
2019-03-25T16:02:02.765Z,16.50
2019-03-25T16:04:30.825Z,16.40
2019-03-25T16:14:41.446Z,16.00
2019-03-25T16:17:09.448Z,15.90
2019-03-25T16:19:56.879Z,15.70
2019-03-25T16:22:27.268Z,15.50
2019-03-25T16:24:57.281Z,15.50
2019-03-25T16:27:28.002Z,15.30
2019-03-25T16:30:03.088Z,15.10
2019-03-25T16:32:35.952Z,15.10
2019-03-25T16:35:05.408Z,14.90
2019-03-25T16:37:33.710Z,14.90
2019-03-25T16:40:21.196Z,14.70
2019-03-25T16:43:51.370Z,14.50
2019-03-25T16:46:19.576Z,14.50
2019-03-25T16:48:48.075Z,14.30
2019-03-25T16:51:16.276Z,15.50
2019-03-25T16:53:44.238Z,14.00
2019-03-25T16:56:14.883Z,13.90
2019-03-25T16:58:42.978Z,16.90
2019-03-25T17:01:11.331Z,13.60
2019-03-25T17:03:39.622Z,13.50
2019-03-25T17:06:07.880Z,13.50
2019-03-25T17:08:35.825Z,16.10
2019-03-25T17:15:00.689Z,13.20
2019-03-25T17:17:28.781Z,14.50
2019-03-25T17:19:56.737Z,14.20
2019-03-25T17:22:24.767Z,13.10
2019-03-25T17:24:52.730Z,13.00
2019-03-25T17:27:20.634Z,16.40
2019-03-25T17:29:48.692Z,14.90
2019-03-25T17:32:16.761Z,14.90
2019-03-25T17:34:44.686Z,13.10
2019-03-25T17:37:13.196Z,13.10
2019-03-25T17:39:41.215Z,13.00
2019-03-25T17:42:09.111Z,13.00
2019-03-25T17:44:37.221Z,13.80
2019-03-25T17:47:06.338Z,13.00
2019-03-25T17:49:34.504Z,13.00
2019-03-25T17:52:02.678Z,13.00
2019-03-25T17:54:30.715Z,12.70
2019-03-25T17:56:58.677Z,16.60
2019-03-25T17:59:26.634Z,16.30
2019-03-25T18:01:54.570Z,12.90
2019-03-25T18:04:22.635Z,12.90
2019-03-25T18:06:50.687Z,12.80
2019-03-25T18:09:18.761Z,15.50
2019-03-25T18:11:46.821Z,14.00
2019-03-25T18:14:14.897Z,12.80
2019-03-25T18:16:42.886Z,12.80
2019-03-25T18:19:10.973Z,12.80
2019-03-25T18:21:39.518Z,12.80
2019-03-25T18:24:07.501Z,12.80
2019-03-25T18:26:37.307Z,12.80
2019-03-25T18:29:05.307Z,12.80
2019-03-25T18:31:42.855Z,12.70
2019-03-25T18:34:04.213Z,14.50
2019-03-25T18:36:32.575Z,16.00
2019-03-25T18:39:00.514Z,12.80
2019-03-25T18:41:28.590Z,16.40
2019-03-25T18:43:56.576Z,15.90
2019-03-25T18:46:24.546Z,13.30
2019-03-25T18:48:52.640Z,12.50
2019-03-25T18:51:21.391Z,12.40
2019-03-25T18:53:49.256Z,12.40
2019-03-25T18:56:17.288Z,12.30
2019-03-25T18:58:45.420Z,12.30
2019-03-25T19:01:13.523Z,12.20
2019-03-25T19:03:41.538Z,13.30
2019-03-25T19:06:09.683Z,9.00
2019-03-25T19:08:38.516Z,12.30
2019-03-25T19:11:06.607Z,14.80
2019-03-25T19:13:34.569Z,12.50
2019-03-25T19:16:02.561Z,12.20
2019-03-25T19:18:30.503Z,12.20
2019-03-25T19:20:58.434Z,12.80
2019-03-25T19:23:26.709Z,12.20
2019-03-25T19:25:54.986Z,12.20
2019-03-25T19:28:23.061Z,12.20
2019-03-25T19:30:51.173Z,12.30
2019-03-25T19:33:19.257Z,10.80
2019-03-25T19:35:47.691Z,14.10
2019-03-25T19:38:15.639Z,12.30
2019-03-25T19:40:43.736Z,12.30
2019-03-25T19:43:11.837Z,14.70
2019-03-25T19:45:40.584Z,12.30
2019-03-25T19:48:10.544Z,12.30
2019-03-25T19:50:39.767Z,12.30
2019-03-25T19:53:18.617Z,12.30
2019-03-25T19:55:39.040Z,15.40
2019-03-25T19:58:07.169Z,12.30
2019-03-25T20:00:37.127Z,12.20
2019-03-25T20:03:06.046Z,12.30
2019-03-25T20:05:34.260Z,12.30
2019-03-25T20:08:02.278Z,12.20
2019-03-25T20:10:31.821Z,12.80
2019-03-25T20:13:01.877Z,12.20
2019-03-25T20:15:35.751Z,12.30
2019-03-25T20:18:00.765Z,12.20
2019-03-25T20:20:29.029Z,12.30
2019-03-25T20:23:00.967Z,12.20
2019-03-25T20:25:29.334Z,12.10
2019-03-25T20:27:58.322Z,13.40
2019-03-25T20:30:26.714Z,12.10
2019-03-25T20:32:55.169Z,12.10
2019-03-25T20:35:24.445Z,15.70
2019-03-25T20:37:52.625Z,12.10
2019-03-25T20:40:25.403Z,12.10
2019-03-25T20:42:53.513Z,12.10
2019-03-25T20:45:22.584Z,12.20
2019-03-25T20:47:50.679Z,12.00
2019-03-25T20:50:18.644Z,12.00
2019-03-25T20:52:46.750Z,15.10
2019-03-25T20:55:14.727Z,14.20
2019-03-25T20:57:42.955Z,11.90
2019-03-25T21:00:11.912Z,11.90
2019-03-25T21:02:45.194Z,11.90
2019-03-25T21:05:09.823Z,13.50
2019-03-25T21:07:37.774Z,11.80
2019-03-25T21:10:07.260Z,11.80
2019-03-25T21:12:35.277Z,11.80
2019-03-25T21:15:05.966Z,13.00
2019-03-25T21:20:09.953Z,11.70
2019-03-25T21:22:41.107Z,14.30
2019-03-25T21:25:09.356Z,13.60
2019-03-25T21:27:37.857Z,11.70
2019-03-25T21:32:58.419Z,13.20
2019-03-25T21:35:25.106Z,11.70
2019-03-25T21:37:53.514Z,11.70
2019-03-25T21:40:21.740Z,11.70
2019-03-25T21:42:50.062Z,11.10
2019-03-25T21:45:18.263Z,11.70
2019-03-25T21:47:46.489Z,15.50
2019-03-25T21:50:14.713Z,11.80
2019-03-25T21:52:42.829Z,11.30
2019-03-25T21:55:11.152Z,11.70
2019-03-25T21:57:39.245Z,12.80
2019-03-25T22:00:08.127Z,11.70
2019-03-25T22:02:36.246Z,11.70
2019-03-25T22:05:04.569Z,11.50
2019-03-25T22:07:32.617Z,13.30
2019-03-25T22:10:00.503Z,12.30
2019-03-25T22:12:28.677Z,13.20
2019-03-25T22:14:56.580Z,11.70
2019-03-25T22:17:27.132Z,14.80
2019-03-25T22:19:55.056Z,11.70
2019-03-25T22:22:26.016Z,11.70
2019-03-25T22:24:53.889Z,11.70
2019-03-25T22:27:21.912Z,11.70
2019-03-25T22:29:49.852Z,12.70
2019-03-25T22:32:17.717Z,11.70
2019-03-25T22:34:45.697Z,11.70
2019-03-25T22:37:14.164Z,11.70
2019-03-25T22:39:42.062Z,11.70
2019-03-25T22:42:09.918Z,13.80
2019-03-25T22:44:37.739Z,11.80
2019-03-25T22:47:05.657Z,11.70
2019-03-25T22:49:35.350Z,14.10
2019-03-25T22:52:03.221Z,11.60
2019-03-25T22:54:31.077Z,11.60
2019-03-25T22:56:58.985Z,11.50
2019-03-25T22:59:26.888Z,11.60
2019-03-25T23:01:54.815Z,11.50
2019-03-25T23:04:22.982Z,11.60
2019-03-25T23:06:50.949Z,11.60
2019-03-25T23:09:18.896Z,11.60
2019-03-25T23:11:47.025Z,11.60
2019-03-25T23:14:14.992Z,11.60
2019-03-25T23:16:43.246Z,11.60
2019-03-25T23:19:11.671Z,11.60
2019-03-25T23:21:39.761Z,11.60
2019-03-25T23:24:08.243Z,11.60
2019-03-25T23:26:36.194Z,11.60
2019-03-25T23:29:04.507Z,11.60
2019-03-25T23:31:33.038Z,11.60
2019-03-25T23:34:01.378Z,11.60
2019-03-25T23:36:29.471Z,11.60
2019-03-25T23:38:57.490Z,12.00
2019-03-25T23:41:25.549Z,11.70
2019-03-25T23:43:53.940Z,11.60
2019-03-25T23:46:21.921Z,11.70
2019-03-25T23:48:49.933Z,11.70
2019-03-25T23:51:17.950Z,12.10
2019-03-25T23:53:46.012Z,13.40
2019-03-25T23:56:13.954Z,13.00
2019-03-25T23:58:41.920Z,12.80
